Time;durP1;ratioP1;P1;durP2;ratioP2;P2;SDS_P1;SDS_P2;PMS_P1;PMS_P2;Temp;Humidity;BMP_temperature;BMP_pressure;BME280_temperature;BME280_humidity;BME280_pressure;Samples;Min_cycle;Max_cycle;Signal;HPM_P1;HPM_P2
2023/05/06 00:01:07;;;;;;;2.33;2.10;;;;;;;;;;4938418;29;20099;-76
2023/05/06 00:03:33;;;;;;;2.42;2.22;;;;;;;;;;4938212;29;20027;-77
2023/05/06 00:05:59;;;;;;;3.90;2.45;;;;;;;;;;4937212;29;20181;-75
2023/05/06 00:08:25;;;;;;;2.75;2.55;;;;;;;;;;4937538;29;20468;-77
2023/05/06 00:10:51;;;;;;;4.60;2.67;;;;;;;;;;4936497;29;20052;-77
2023/05/06 00:13:17;;;;;;;4.70;2.40;;;;;;;;;;4936819;29;20036;-77
2023/05/06 00:15:43;;;;;;;3.22;2.75;;;;;;;;;;4938593;29;20070;-76
2023/05/06 00:18:09;;;;;;;3.40;3.03;;;;;;;;;;4934602;29;20035;-76
2023/05/06 00:20:35;;;;;;;4.50;2.95;;;;;;;;;;4936951;29;20035;-75
2023/05/06 00:23:01;;;;;;;3.55;2.92;;;;;;;;;;4933881;29;20024;-77
2023/05/06 00:25:27;;;;;;;6.78;2.70;;;;;;;;;;4931292;29;20052;-76
2023/05/06 00:27:54;;;;;;;4.30;2.38;;;;;;;;;;4931913;29;20035;-77
2023/05/06 00:30:20;;;;;;;2.88;2.20;;;;;;;;;;4931871;29;20024;-76
2023/05/06 00:32:45;;;;;;;2.80;2.60;;;;;;;;;;4929868;29;20032;-77
2023/05/06 00:35:11;;;;;;;2.75;1.90;;;;;;;;;;4931792;29;20031;-76
2023/05/06 00:37:37;;;;;;;2.95;2.63;;;;;;;;;;4936340;29;20040;-78
2023/05/06 00:40:04;;;;;;;3.47;3.05;;;;;;;;;;4934742;29;20032;-76
2023/05/06 00:42:30;;;;;;;3.22;2.53;;;;;;;;;;4932578;29;20034;-76
2023/05/06 00:44:56;;;;;;;4.63;2.72;;;;;;;;;;4934638;29;20192;-77
2023/05/06 00:47:22;;;;;;;4.18;2.55;;;;;;;;;;4934560;29;20032;-77
2023/05/06 00:49:49;;;;;;;3.15;2.25;;;;;;;;;;4932422;29;20059;-77
2023/05/06 00:52:16;;;;;;;3.97;2.88;;;;;;;;;;4930656;29;20865;-77
2023/05/06 00:54:42;;;;;;;3.53;2.22;;;;;;;;;;4933563;29;20082;-77
2023/05/06 00:57:08;;;;;;;4.65;2.72;;;;;;;;;;4936003;29;20055;-78
2023/05/06 00:59:34;;;;;;;4.03;2.88;;;;;;;;;;4933495;29;20043;-77
2023/05/06 01:02:00;;;;;;;3.20;2.88;;;;;;;;;;4935098;29;20038;-78
2023/05/06 01:04:27;;;;;;;5.70;2.17;;;;;;;;;;4935568;29;20032;-77
2023/05/06 01:06:57;;;;;;;7.13;2.88;;;;;;;;;;4935861;29;20039;-78
2023/05/06 01:09:29;;;;;;;2.83;2.45;;;;;;;;;;4935791;29;20028;-77
2023/05/06 01:12:06;;;;;;;3.17;2.58;;;;;;;;;;4935824;29;20063;-77
2023/05/06 01:14:41;;;;;;;2.83;2.63;;;;;;;;;;4936052;29;20516;-77
2023/05/06 01:17:10;;;;;;;5.20;2.33;;;;;;;;;;4934873;29;20047;-76
2023/05/06 01:19:37;;;;;;;;;;;;;;;;;;4936820;29;20031;-76
2023/05/06 01:22:05;;;;;;;3.15;2.85;;;;;;;;;;4934980;29;19911;-76
2023/05/06 01:24:38;;;;;;;3.05;2.78;;;;;;;;;;4935814;29;20054;-77
2023/05/06 01:27:04;;;;;;;6.30;2.30;;;;;;;;;;4937138;29;20063;-77
2023/05/06 01:29:31;;;;;;;2.97;2.67;;;;;;;;;;4937518;29;20028;-77
2023/05/06 01:31:59;;;;;;;4.13;2.58;;;;;;;;;;4934766;29;20027;-78
2023/05/06 01:34:34;;;;;;;4.10;2.53;;;;;;;;;;4937117;29;20020;-78
2023/05/06 01:37:20;;;;;;;3.25;2.95;;;;;;;;;;4935381;29;20024;-76
2023/05/06 01:39:47;;;;;;;4.25;2.28;;;;;;;;;;4933509;29;20036;-76
2023/05/06 01:42:13;;;;;;;2.70;2.50;;;;;;;;;;4934276;29;20512;-77
2023/05/06 01:44:39;;;;;;;3.60;2.63;;;;;;;;;;4937737;29;20059;-77
2023/05/06 01:47:07;;;;;;;1.90;1.80;;;;;;;;;;4937420;29;20038;-76
2023/05/06 01:49:33;;;;;;;8.15;2.45;;;;;;;;;;4937208;29;20031;-77
2023/05/06 01:51:59;;;;;;;2.10;1.90;;;;;;;;;;4935004;29;20404;-78
2023/05/06 01:54:25;;;;;;;2.63;2.45;;;;;;;;;;4934921;29;20027;-76
2023/05/06 01:56:51;;;;;;;2.13;1.95;;;;;;;;;;4935584;29;20024;-75
2023/05/06 01:59:17;;;;;;;2.13;2.03;;;;;;;;;;4934995;29;20024;-76
2023/05/06 02:01:43;;;;;;;4.88;2.45;;;;;;;;;;4932481;29;20357;-76
2023/05/06 02:04:09;;;;;;;2.47;2.28;;;;;;;;;;4933361;29;20388;-75
2023/05/06 02:06:35;;;;;;;3.20;2.78;;;;;;;;;;4936824;29;20091;-76
2023/05/06 02:09:01;;;;;;;4.05;2.55;;;;;;;;;;4936659;29;20107;-77
2023/05/06 02:11:27;;;;;;;3.15;2.72;;;;;;;;;;4933956;29;20058;-76
2023/05/06 02:13:54;;;;;;;4.03;2.22;;;;;;;;;;4934119;29;20039;-76
2023/05/06 02:16:20;;;;;;;3.63;2.38;;;;;;;;;;4936685;29;20024;-77
2023/05/06 02:18:47;;;;;;;2.38;2.17;;;;;;;;;;4935368;29;20043;-76
2023/05/06 02:21:13;;;;;;;2.20;2.08;;;;;;;;;;4934767;29;20023;-77
2023/05/06 02:23:39;;;;;;;5.30;2.20;;;;;;;;;;4937894;29;20039;-76
2023/05/06 02:26:05;;;;;;;3.05;2.35;;;;;;;;;;4936659;29;20556;-77
2023/05/06 02:28:31;;;;;;;4.45;2.67;;;;;;;;;;4936836;29;20055;-76
2023/05/06 02:30:57;;;;;;;4.32;2.78;;;;;;;;;;4937872;29;20056;-76
2023/05/06 02:33:23;;;;;;;3.20;2.50;;;;;;;;;;4937402;29;20091;-76
2023/05/06 02:35:50;;;;;;;2.50;2.30;;;;;;;;;;4935674;29;20023;-76
2023/05/06 02:38:16;;;;;;;3.15;2.88;;;;;;;;;;4933819;29;20074;-75
2023/05/06 02:40:42;;;;;;;3.28;2.67;;;;;;;;;;4932857;29;20034;-75
2023/05/06 02:43:11;;;;;;;2.63;2.42;;;;;;;;;;4933304;29;20031;-76
2023/05/06 02:45:37;;;;;;;3.13;2.00;;;;;;;;;;4934853;29;20028;-76
2023/05/06 02:48:03;;;;;;;3.10;2.22;;;;;;;;;;4933618;29;20503;-76
2023/05/06 02:50:29;;;;;;;2.33;2.20;;;;;;;;;;4935103;29;20035;-74
2023/05/06 02:52:55;;;;;;;4.93;2.20;;;;;;;;;;4934198;29;20024;-76
2023/05/06 02:55:21;;;;;;;2.90;2.42;;;;;;;;;;4932744;29;20492;-74
2023/05/06 02:57:47;;;;;;;8.90;2.67;;;;;;;;;;4933541;29;20047;-76
2023/05/06 03:00:14;;;;;;;3.05;1.98;;;;;;;;;;4935178;29;20032;-76
2023/05/06 03:02:40;;;;;;;3.65;2.70;;;;;;;;;;4933389;29;20027;-76
2023/05/06 03:05:06;;;;;;;2.80;2.50;;;;;;;;;;4937278;29;20031;-76
2023/05/06 03:07:34;;;;;;;2.78;2.58;;;;;;;;;;4936510;29;20023;-76
2023/05/06 03:10:00;;;;;;;3.95;2.40;;;;;;;;;;4934765;29;20396;-73
2023/05/06 03:12:26;;;;;;;6.05;2.75;;;;;;;;;;4931230;29;20027;-76
2023/05/06 03:14:52;;;;;;;5.10;2.42;;;;;;;;;;4931516;29;20036;-76
2023/05/06 03:17:18;;;;;;;6.15;2.65;;;;;;;;;;4934283;29;20070;-75
2023/05/06 03:19:44;;;;;;;2.22;2.00;;;;;;;;;;4935749;29;20028;-76
2023/05/06 03:22:10;;;;;;;3.15;2.53;;;;;;;;;;4936129;29;20055;-75
2023/05/06 03:24:36;;;;;;;5.35;2.60;;;;;;;;;;4938106;29;20024;-76
2023/05/06 03:27:02;;;;;;;2.55;2.28;;;;;;;;;;4936478;29;20070;-74
2023/05/06 03:29:28;;;;;;;4.13;2.20;;;;;;;;;;4936346;29;20227;-76
2023/05/06 03:31:57;;;;;;;2.63;2.42;;;;;;;;;;4941189;29;20327;-76
2023/05/06 03:34:23;;;;;;;2.53;2.38;;;;;;;;;;4941725;29;20040;-76
2023/05/06 03:36:49;;;;;;;2.90;2.60;;;;;;;;;;4939657;29;20043;-76
2023/05/06 03:39:15;;;;;;;3.80;2.38;;;;;;;;;;4941171;29;20512;-76
2023/05/06 03:41:41;;;;;;;3.40;2.80;;;;;;;;;;4939855;29;20249;-76
2023/05/06 03:44:07;;;;;;;3.15;2.25;;;;;;;;;;4940474;29;20024;-76
2023/05/06 03:46:33;;;;;;;4.53;2.30;;;;;;;;;;4938828;29;20028;-76
2023/05/06 03:48:59;;;;;;;2.30;2.10;;;;;;;;;;4939178;29;20481;-76
2023/05/06 03:51:26;;;;;;;6.05;2.67;;;;;;;;;;4937860;29;20256;-76
2023/05/06 03:53:55;;;;;;;3.05;2.30;;;;;;;;;;4936119;29;20219;-76
2023/05/06 03:56:21;;;;;;;2.65;2.45;;;;;;;;;;4938339;29;20016;-76
2023/05/06 03:58:48;;;;;;;3.97;1.90;;;;;;;;;;4937347;29;20047;-76
2023/05/06 04:01:14;;;;;;;3.63;2.20;;;;;;;;;;4938933;29;20031;-76
2023/05/06 04:03:40;;;;;;;4.13;2.65;;;;;;;;;;4936852;29;20148;-76
2023/05/06 04:06:06;;;;;;;2.22;1.90;;;;;;;;;;4938254;29;20049;-77
2023/05/06 04:08:32;;;;;;;1.83;1.73;;;;;;;;;;4939883;29;20034;-76
2023/05/06 04:11:03;;;;;;;35.25;3.63;;;;;;;;;;4937597;29;20019;-74
2023/05/06 04:13:29;;;;;;;2.88;2.15;;;;;;;;;;4937037;29;20484;-75
2023/05/06 04:15:55;;;;;;;6.25;3.30;;;;;;;;;;4938703;29;20023;-76
2023/05/06 04:18:21;;;;;;;2.88;2.55;;;;;;;;;;4936669;29;20134;-76
2023/05/06 04:20:47;;;;;;;2.38;2.22;;;;;;;;;;4934443;29;20028;-76
2023/05/06 04:23:14;;;;;;;2.35;2.13;;;;;;;;;;4941221;29;20461;-75
2023/05/06 04:25:41;;;;;;;4.28;2.60;;;;;;;;;;4940666;29;20048;-76
2023/05/06 04:28:08;;;;;;;2.28;2.03;;;;;;;;;;4940885;29;20023;-76
2023/05/06 04:30:34;;;;;;;2.83;2.25;;;;;;;;;;4940443;29;20027;-76
2023/05/06 04:33:02;;;;;;;4.45;3.50;;;;;;;;;;4940999;29;20036;-77
2023/05/06 04:35:28;;;;;;;5.75;3.15;;;;;;;;;;4941436;29;20019;-76
2023/05/06 04:37:55;;;;;;;3.28;2.67;;;;;;;;;;4939190;29;20501;-76
2023/05/06 04:40:25;;;;;;;3.85;2.45;;;;;;;;;;4939018;29;20111;-74
2023/05/06 04:42:51;;;;;;;;;;;;;;;;;;4938863;29;20102;-76
2023/05/06 04:45:17;;;;;;;2.97;2.65;;;;;;;;;;4938654;29;19911;-76
2023/05/06 04:47:43;;;;;;;3.85;2.63;;;;;;;;;;4940732;29;20030;-76
2023/05/06 04:50:09;;;;;;;3.70;3.33;;;;;;;;;;4938634;29;20028;-76
2023/05/06 04:52:36;;;;;;;2.10;2.00;;;;;;;;;;4937672;29;20686;-76
2023/05/06 04:55:02;;;;;;;3.90;2.53;;;;;;;;;;4935354;29;20075;-76
2023/05/06 04:57:29;;;;;;;2.65;2.42;;;;;;;;;;4935032;29;20392;-76
2023/05/06 04:59:55;;;;;;;7.85;2.85;;;;;;;;;;4934908;29;20051;-76
2023/05/06 05:02:21;;;;;;;6.03;3.35;;;;;;;;;;4934994;29;20024;-76
2023/05/06 05:04:47;;;;;;;3.33;3.05;;;;;;;;;;4943837;29;20338;-76
2023/05/06 05:07:13;;;;;;;3.28;2.50;;;;;;;;;;4948097;29;20122;-76
2023/05/06 05:09:39;;;;;;;3.05;2.85;;;;;;;;;;4947351;29;20058;-76
2023/05/06 05:12:05;;;;;;;3.15;2.55;;;;;;;;;;4944823;29;20019;-76
2023/05/06 05:14:31;;;;;;;5.47;3.33;;;;;;;;;;4944657;29;20027;-76
2023/05/06 05:16:57;;;;;;;4.30;3.25;;;;;;;;;;4941646;29;20325;-76
2023/05/06 05:19:23;;;;;;;3.00;2.80;;;;;;;;;;4943214;29;20096;-76
2023/05/06 05:21:49;;;;;;;2.92;2.72;;;;;;;;;;4943626;29;20125;-76
2023/05/06 05:24:15;;;;;;;3.53;2.20;;;;;;;;;;4942724;29;20042;-76
2023/05/06 05:26:42;;;;;;;4.68;2.83;;;;;;;;;;4943575;29;20055;-76
2023/05/06 05:29:08;;;;;;;2.72;2.47;;;;;;;;;;4943411;29;20128;-77
2023/05/06 05:31:34;;;;;;;1.90;1.80;;;;;;;;;;4933025;29;20034;-76
2023/05/06 05:34:00;;;;;;;3.13;2.47;;;;;;;;;;4931187;29;20031;-76
2023/05/06 05:36:26;;;;;;;2.70;2.50;;;;;;;;;;4932037;29;20126;-76
2023/05/06 05:38:55;;;;;;;3.78;2.30;;;;;;;;;;4931431;29;20036;-77
2023/05/06 05:41:20;;;;;;;4.05;2.42;;;;;;;;;;4931793;29;20408;-76
2023/05/06 05:43:47;;;;;;;2.63;2.42;;;;;;;;;;4933076;29;20523;-77
2023/05/06 05:46:13;;;;;;;4.13;2.75;;;;;;;;;;4943506;29;20023;-76
2023/05/06 05:48:39;;;;;;;3.65;2.70;;;;;;;;;;4934892;29;20031;-76
2023/05/06 05:51:05;;;;;;;2.33;2.10;;;;;;;;;;4933169;29;20147;-77
2023/05/06 05:53:31;;;;;;;3.58;2.33;;;;;;;;;;4935450;29;20031;-76
2023/05/06 05:55:57;;;;;;;11.57;2.45;;;;;;;;;;4934257;29;20078;-76
2023/05/06 05:58:23;;;;;;;6.93;2.50;;;;;;;;;;4932883;29;20469;-74
2023/05/06 06:00:49;;;;;;;3.35;2.83;;;;;;;;;;4933346;29;20028;-76
2023/05/06 06:03:17;;;;;;;2.70;1.95;;;;;;;;;;4932697;29;20070;-76
2023/05/06 06:05:43;;;;;;;2.75;2.50;;;;;;;;;;4931421;29;20034;-74
2023/05/06 06:08:09;;;;;;;3.08;2.40;;;;;;;;;;4933062;29;20123;-76
2023/05/06 06:10:35;;;;;;;2.53;2.33;;;;;;;;;;4932347;29;20011;-77
2023/05/06 06:13:01;;;;;;;5.07;2.63;;;;;;;;;;4932784;29;20020;-74
2023/05/06 06:15:28;;;;;;;2.40;2.17;;;;;;;;;;4931315;29;20056;-74
2023/05/06 06:17:54;;;;;;;3.78;2.60;;;;;;;;;;4932479;29;20540;-74
2023/05/06 06:20:20;;;;;;;3.47;2.72;;;;;;;;;;4931167;29;20028;-74
2023/05/06 06:22:46;;;;;;;3.75;3.42;;;;;;;;;;4932563;29;20026;-74
2023/05/06 06:25:12;;;;;;;7.47;4.03;;;;;;;;;;4932071;29;20050;-76
2023/05/06 06:27:38;;;;;;;3.92;3.03;;;;;;;;;;4931215;29;20130;-76
2023/05/06 06:30:05;;;;;;;3.53;3.22;;;;;;;;;;4932518;29;20039;-76
2023/05/06 06:32:31;;;;;;;3.38;3.08;;;;;;;;;;4932515;29;20028;-74
2023/05/06 06:34:57;;;;;;;5.38;3.65;;;;;;;;;;4932249;29;20526;-74
2023/05/06 06:37:23;;;;;;;4.05;2.88;;;;;;;;;;4932272;29;20035;-76
2023/05/06 06:39:49;;;;;;;4.05;3.33;;;;;;;;;;4934505;29;20040;-74
2023/05/06 06:42:15;;;;;;;6.30;3.28;;;;;;;;;;4941425;29;20027;-74
2023/05/06 06:44:41;;;;;;;5.57;3.53;;;;;;;;;;4941696;29;20019;-75
2023/05/06 06:47:07;;;;;;;4.65;3.38;;;;;;;;;;4934820;29;20063;-74
2023/05/06 06:49:33;;;;;;;5.65;4.00;;;;;;;;;;4939254;29;20124;-76
2023/05/06 06:51:59;;;;;;;4.13;3.67;;;;;;;;;;4936768;29;20578;-76
2023/05/06 06:54:25;;;;;;;6.45;3.38;;;;;;;;;;4935732;29;20051;-76
2023/05/06 06:56:57;;;;;;;5.32;3.63;;;;;;;;;;4935658;29;20098;-76
2023/05/06 06:59:23;;;;;;;5.03;3.70;;;;;;;;;;4948079;29;20082;-75
2023/05/06 07:01:49;;;;;;;6.20;3.50;;;;;;;;;;4948080;29;20218;-75
2023/05/06 07:04:15;;;;;;;5.75;2.53;;;;;;;;;;4939539;29;20400;-76
2023/05/06 07:06:41;;;;;;;4.22;3.30;;;;;;;;;;4935655;29;20536;-76
2023/05/06 07:09:07;;;;;;;3.30;2.55;;;;;;;;;;4934155;29;20063;-76
2023/05/06 07:11:33;;;;;;;6.78;3.40;;;;;;;;;;4935785;29;20054;-74
2023/05/06 07:13:59;;;;;;;2.92;2.72;;;;;;;;;;4938948;29;20032;-76
2023/05/06 07:16:25;;;;;;;3.95;3.40;;;;;;;;;;4939791;29;20027;-76
2023/05/06 07:18:52;;;;;;;6.72;3.28;;;;;;;;;;4935748;29;20119;-76
2023/05/06 07:21:18;;;;;;;4.95;2.97;;;;;;;;;;4942967;29;20381;-76
2023/05/06 07:23:44;;;;;;;3.38;3.08;;;;;;;;;;4940683;29;20457;-78
2023/05/06 07:26:10;;;;;;;4.85;3.47;;;;;;;;;;4940768;29;20055;-76
2023/05/06 07:28:36;;;;;;;4.50;3.17;;;;;;;;;;4936367;29;20681;-76
2023/05/06 07:31:02;;;;;;;7.15;4.55;;;;;;;;;;4936857;29;20279;-76
2023/05/06 07:33:28;;;;;;;5.07;3.88;;;;;;;;;;4939799;29;20028;-76
2023/05/06 07:35:54;;;;;;;4.53;4.13;;;;;;;;;;4939712;29;20292;-76
2023/05/06 07:38:24;;;;;;;4.75;4.07;;;;;;;;;;4939602;29;20055;-76
2023/05/06 07:40:50;;;;;;;6.28;4.10;;;;;;;;;;4939455;29;20020;-76
2023/05/06 07:43:16;;;;;;;5.85;4.40;;;;;;;;;;4938083;29;20205;-76
2023/05/06 07:45:42;;;;;;;6.72;3.90;;;;;;;;;;4935422;29;20087;-76
2023/05/06 07:48:08;;;;;;;5.13;4.50;;;;;;;;;;4937334;29;20083;-76
2023/05/06 07:50:34;;;;;;;5.40;4.68;;;;;;;;;;4940171;29;20448;-76
2023/05/06 07:53:01;;;;;;;5.03;4.35;;;;;;;;;;4939770;29;20019;-76
2023/05/06 07:55:28;;;;;;;7.60;3.90;;;;;;;;;;4935546;29;20469;-76
2023/05/06 07:57:54;;;;;;;5.18;3.58;;;;;;;;;;4941392;29;20067;-77
2023/05/06 08:00:20;;;;;;;5.57;3.65;;;;;;;;;;4943301;29;20024;-76
2023/05/06 08:02:47;;;;;;;5.72;4.53;;;;;;;;;;4942072;29;20031;-76
2023/05/06 08:05:13;;;;;;;4.53;3.90;;;;;;;;;;4940934;29;20024;-76
2023/05/06 08:07:43;;;;;;;5.03;3.40;;;;;;;;;;4938471;29;20192;-76
2023/05/06 08:10:08;;;;;;;;;;;;;;;;;;4941391;29;20034;-76
2023/05/06 08:12:35;;;;;;;6.03;3.80;;;;;;;;;;4943166;29;19903;-75
2023/05/06 08:15:02;;;;;;;6.03;4.63;;;;;;;;;;4944702;29;20034;-77
2023/05/06 08:17:28;;;;;;;7.32;3.67;;;;;;;;;;4950461;29;20055;-77
2023/05/06 08:19:54;;;;;;;4.93;4.53;;;;;;;;;;4950048;29;20216;-76
2023/05/06 08:22:20;;;;;;;7.78;4.93;;;;;;;;;;4949930;29;20046;-76
2023/05/06 08:24:46;;;;;;;5.00;4.13;;;;;;;;;;4949714;29;20193;-77
2023/05/06 08:27:12;;;;;;;6.65;4.80;;;;;;;;;;4950156;29;20079;-76
2023/05/06 08:29:38;;;;;;;9.05;5.13;;;;;;;;;;4942423;29;20027;-76
2023/05/06 08:32:05;;;;;;;9.95;4.75;;;;;;;;;;4944437;29;20031;-77
2023/05/06 08:34:31;;;;;;;15.32;7.85;;;;;;;;;;4950752;29;20065;-76
2023/05/06 08:36:57;;;;;;;15.32;8.85;;;;;;;;;;4948538;29;20027;-76
2023/05/06 08:39:23;;;;;;;9.38;6.07;;;;;;;;;;4948920;29;20024;-76
2023/05/06 08:41:51;;;;;;;9.65;6.15;;;;;;;;;;4948904;29;20035;-78
2023/05/06 08:44:18;;;;;;;10.63;6.40;;;;;;;;;;4948824;29;20035;-76
2023/05/06 08:46:45;;;;;;;8.93;5.72;;;;;;;;;;4947774;29;20062;-76
2023/05/06 08:49:11;;;;;;;6.18;5.57;;;;;;;;;;4950290;29;20225;-77
2023/05/06 08:51:37;;;;;;;9.25;5.93;;;;;;;;;;4950339;29;20019;-77
2023/05/06 08:54:03;;;;;;;10.88;5.72;;;;;;;;;;4947932;29;20287;-77
2023/05/06 08:56:33;;;;;;;9.98;6.63;;;;;;;;;;4947833;29;20027;-77
2023/05/06 08:59:00;;;;;;;;;;;;;;;;;;4949592;29;20054;-76
2023/05/06 09:01:26;;;;;;;9.27;5.65;;;;;;;;;;4949766;29;19902;-76
2023/05/06 09:03:53;;;;;;;6.07;5.20;;;;;;;;;;4942622;29;20031;-77
2023/05/06 09:06:19;;;;;;;9.02;5.30;;;;;;;;;;4939823;29;20574;-76
2023/05/06 09:08:45;;;;;;;8.38;5.22;;;;;;;;;;4938459;29;20027;-78
2023/05/06 09:11:20;;;;;;;7.00;5.57;;;;;;;;;;4938203;29;20039;-75
2023/05/06 09:13:46;;;;;;;9.65;5.32;;;;;;;;;;4937781;29;20028;-76
2023/05/06 09:16:26;;;;;;;8.00;4.78;;;;;;;;;;4937615;29;20031;-77
2023/05/06 09:18:52;;;;;;;9.52;5.55;;;;;;;;;;4937236;29;20032;-76
2023/05/06 09:21:18;;;;;;;8.80;4.57;;;;;;;;;;4933443;29;20031;-76
2023/05/06 09:23:44;;;;;;;6.03;5.05;;;;;;;;;;4933480;29;20032;-77
2023/05/06 09:26:10;;;;;;;6.63;4.35;;;;;;;;;;4934900;29;20095;-77
2023/05/06 09:28:36;;;;;;;13.57;5.25;;;;;;;;;;4934125;29;20162;-77
2023/05/06 09:31:03;;;;;;;7.15;4.13;;;;;;;;;;4934083;29;20024;-75
2023/05/06 09:33:29;;;;;;;10.40;4.78;;;;;;;;;;4931122;29;20028;-77
2023/05/06 09:35:55;;;;;;;6.13;4.32;;;;;;;;;;4934777;29;20171;-77
2023/05/06 09:38:21;;;;;;;8.15;4.72;;;;;;;;;;4933965;29;20400;-76
2023/05/06 09:40:47;;;;;;;8.60;4.40;;;;;;;;;;4928990;29;20027;-77
2023/05/06 09:43:14;;;;;;;4.70;4.18;;;;;;;;;;4938677;28;20051;-78
2023/05/06 09:45:40;;;;;;;6.30;4.32;;;;;;;;;;4934133;29;20020;-77
2023/05/06 09:48:08;;;;;;;10.00;4.32;;;;;;;;;;4932158;29;20556;-76
2023/05/06 09:50:35;;;;;;;8.23;4.78;;;;;;;;;;4929459;29;20466;-76
2023/05/06 09:53:03;;;;;;;6.78;4.00;;;;;;;;;;4927720;29;20584;-76
2023/05/06 09:55:29;;;;;;;9.50;3.50;;;;;;;;;;4927535;29;20027;-76
2023/05/06 09:57:56;;;;;;;4.57;3.75;;;;;;;;;;4931393;29;20038;-76
2023/05/06 10:00:26;;;;;;;4.90;3.85;;;;;;;;;;4927777;29;20020;-76
2023/05/06 10:02:54;;;;;;;6.65;3.78;;;;;;;;;;4929112;29;20051;-76
2023/05/06 10:05:20;;;;;;;8.15;4.55;;;;;;;;;;4929575;29;20024;-76
2023/05/06 10:07:48;;;;;;;5.85;4.03;;;;;;;;;;4930439;29;20031;-76
2023/05/06 10:10:15;;;;;;;7.63;3.63;;;;;;;;;;4928096;29;20035;-75
2023/05/06 10:12:41;;;;;;;4.35;3.95;;;;;;;;;;4931963;29;20023;-75
2023/05/06 10:15:07;;;;;;;5.25;4.50;;;;;;;;;;4933629;29;20086;-75
2023/05/06 10:17:34;;;;;;;5.30;4.00;;;;;;;;;;4933458;29;20331;-76
2023/05/06 10:20:00;;;;;;;5.47;3.90;;;;;;;;;;4929027;29;20027;-76
2023/05/06 10:22:45;;;;;;;4.72;3.78;;;;;;;;;;4930309;29;20476;-75
2023/05/06 10:25:11;;;;;;;6.85;3.88;;;;;;;;;;4928675;29;20066;-73
2023/05/06 10:27:42;;;;;;;5.70;4.00;;;;;;;;;;4929274;29;20051;-76
2023/05/06 10:30:09;;;;;;;5.70;3.75;;;;;;;;;;4928510;29;20031;-75
2023/05/06 10:32:36;;;;;;;6.40;2.85;;;;;;;;;;4928466;29;20477;-74
2023/05/06 10:35:09;;;;;;;5.10;4.22;;;;;;;;;;4925813;29;20039;-72
2023/05/06 10:37:36;;;;;;;5.18;3.53;;;;;;;;;;4934895;29;20114;-76
2023/05/06 10:40:03;;;;;;;4.78;4.15;;;;;;;;;;4938385;29;20055;-76
2023/05/06 10:42:34;;;;;;;5.70;3.20;;;;;;;;;;4936316;29;20038;-77
2023/05/06 10:45:02;;;;;;;4.85;4.07;;;;;;;;;;4939209;29;20345;-75
2023/05/06 10:47:28;;;;;;;7.10;4.07;;;;;;;;;;4936762;29;20034;-76
2023/05/06 10:50:13;;;;;;;11.80;4.35;;;;;;;;;;4917608;29;20054;-75
2023/05/06 10:52:45;;;;;;;5.30;4.00;;;;;;;;;;4908602;29;20417;-73
2023/05/06 10:55:47;;;;;;;5.68;3.70;;;;;;;;;;4921902;29;20028;-76
2023/05/06 10:58:14;;;;;;;6.72;3.67;;;;;;;;;;4898093;29;20056;-76
2023/05/06 11:00:40;;;;;;;8.50;4.00;;;;;;;;;;4930163;29;20098;-73
2023/05/06 11:03:12;;;;;;;7.93;4.32;;;;;;;;;;4937773;29;20051;-75
2023/05/06 11:05:51;;;;;;;11.02;4.63;;;;;;;;;;4937854;29;20023;-74
2023/05/06 11:08:17;;;;;;;;;;;;;;;;;;4937285;29;20027;-75
2023/05/06 11:10:43;;;;;;;5.38;4.05;;;;;;;;;;4936981;29;19918;-74
2023/05/06 11:13:26;;;;;;;9.18;4.43;;;;;;;;;;4937296;29;20023;-76
2023/05/06 11:15:53;;;;;;;8.88;3.72;;;;;;;;;;4940331;29;20051;-77
2023/05/06 11:18:28;;;;;;;4.60;3.83;;;;;;;;;;4938311;29;20040;-77
2023/05/06 11:21:20;;;;;;;4.50;4.07;;;;;;;;;;4938126;29;20028;-78
2023/05/06 11:23:50;;;;;;;4.70;3.92;;;;;;;;;;4931164;29;20035;-75
2023/05/06 11:26:16;;;;;;;7.53;3.95;;;;;;;;;;4932539;29;20142;-77
2023/05/06 11:28:43;;;;;;;6.53;3.88;;;;;;;;;;4923491;29;20100;-77
2023/05/06 11:31:11;;;;;;;4.70;3.90;;;;;;;;;;4934199;29;20039;-73
2023/05/06 11:33:37;;;;;;;4.15;3.25;;;;;;;;;;4918828;29;20121;-76
2023/05/06 11:36:04;;;;;;;5.78;3.63;;;;;;;;;;4920232;29;20024;-75
2023/05/06 11:38:40;;;;;;;5.70;3.47;;;;;;;;;;4918727;29;20268;-73
2023/05/06 11:41:06;;;;;;;7.53;4.38;;;;;;;;;;4934750;29;20040;-76
2023/05/06 11:43:32;;;;;;;9.93;3.67;;;;;;;;;;4925012;29;20075;-76
2023/05/06 11:45:58;;;;;;;4.25;2.90;;;;;;;;;;4936627;29;20043;-76
2023/05/06 11:48:24;;;;;;;4.57;3.85;;;;;;;;;;4932845;29;20460;-76
2023/05/06 11:50:50;;;;;;;6.55;4.18;;;;;;;;;;4914129;29;20040;-76
2023/05/06 11:53:18;;;;;;;3.05;2.75;;;;;;;;;;4906440;29;20042;-76
2023/05/06 11:55:44;;;;;;;4.75;3.53;;;;;;;;;;4908066;29;20031;-77
2023/05/06 11:58:18;;;;;;;5.13;2.50;;;;;;;;;;4917809;29;20036;-76
2023/05/06 12:00:53;;;;;;;7.80;3.00;;;;;;;;;;4925169;29;20079;-73
2023/05/06 12:03:20;;;;;;;4.40;3.22;;;;;;;;;;4925583;29;20039;-77
2023/05/06 12:05:49;;;;;;;3.30;3.00;;;;;;;;;;4925554;29;20074;-76
2023/05/06 12:08:22;;;;;;;4.55;2.45;;;;;;;;;;4925133;29;20388;-76
2023/05/06 12:10:48;;;;;;;2.63;2.22;;;;;;;;;;4923822;29;20024;-76
2023/05/06 12:13:15;;;;;;;4.97;2.15;;;;;;;;;;4912088;29;20036;-75
2023/05/06 12:15:42;;;;;;;2.22;1.95;;;;;;;;;;4907638;29;20388;-75
2023/05/06 12:18:08;;;;;;;4.10;2.33;;;;;;;;;;4905024;29;20055;-76
2023/05/06 12:20:34;;;;;;;3.90;2.22;;;;;;;;;;4923648;29;20027;-76
2023/05/06 12:23:07;;;;;;;2.97;2.22;;;;;;;;;;4925948;29;20547;-76
2023/05/06 12:25:33;;;;;;;2.03;1.77;;;;;;;;;;4926115;29;20118;-74
2023/05/06 12:27:59;;;;;;;7.05;2.63;;;;;;;;;;4929015;29;20070;-74
2023/05/06 12:30:31;;;;;;;3.95;2.13;;;;;;;;;;4930577;29;20063;-74
2023/05/06 12:32:58;;;;;;;2.47;2.33;;;;;;;;;;4930633;29;20023;-74
2023/05/06 12:35:27;;;;;;;3.13;2.28;;;;;;;;;;4934367;29;20695;-74
2023/05/06 12:37:53;;;;;;;2.70;1.55;;;;;;;;;;4930242;29;20066;-73
2023/05/06 12:40:19;;;;;;;2.15;1.70;;;;;;;;;;4930194;29;20051;-74
2023/05/06 12:42:52;;;;;;;2.15;1.30;;;;;;;;;;4930078;29;20050;-75
2023/05/06 12:45:18;;;;;;;5.50;1.45;;;;;;;;;;4930478;29;20083;-74
2023/05/06 12:47:54;;;;;;;1.67;1.50;;;;;;;;;;4930479;29;20062;-74
2023/05/06 12:50:37;;;;;;;2.50;1.48;;;;;;;;;;4931505;29;20023;-74
2023/05/06 12:53:04;;;;;;;1.77;1.35;;;;;;;;;;4929718;29;20032;-74
2023/05/06 12:55:31;;;;;;;2.13;1.30;;;;;;;;;;4929169;29;20469;-74
2023/05/06 12:57:57;;;;;;;1.73;1.20;;;;;;;;;;4930780;29;20036;-74
2023/05/06 13:00:23;;;;;;;1.50;1.30;;;;;;;;;;4929095;29;20676;-76
2023/05/06 13:02:49;;;;;;;2.40;1.75;;;;;;;;;;4930273;29;20035;-76
2023/05/06 13:05:15;;;;;;;1.63;1.45;;;;;;;;;;4929136;29;20031;-76
2023/05/06 13:07:42;;;;;;;2.10;1.90;;;;;;;;;;4929915;29;20024;-77
2023/05/06 13:10:08;;;;;;;2.25;2.03;;;;;;;;;;4931716;29;20032;-77
2023/05/06 13:12:34;;;;;;;1.52;1.42;;;;;;;;;;4931252;29;20083;-75
2023/05/06 13:15:00;;;;;;;2.50;1.60;;;;;;;;;;4930120;29;20020;-73
2023/05/06 13:17:27;;;;;;;1.88;1.50;;;;;;;;;;4930599;29;20475;-75
2023/05/06 13:19:53;;;;;;;1.17;1.10;;;;;;;;;;4929883;29;20114;-74
2023/05/06 13:22:19;;;;;;;0.88;0.88;;;;;;;;;;4929751;29;20151;-74
2023/05/06 13:24:45;;;;;;;1.20;1.10;;;;;;;;;;4929522;29;20134;-77
2023/05/06 13:27:11;;;;;;;3.58;1.27;;;;;;;;;;4929049;29;20062;-76
2023/05/06 13:29:38;;;;;;;4.97;1.13;;;;;;;;;;4930058;29;20024;-77
2023/05/06 13:32:04;;;;;;;1.60;1.50;;;;;;;;;;4929774;29;20111;-76
2023/05/06 13:34:31;;;;;;;2.50;1.27;;;;;;;;;;4929609;29;20024;-77
2023/05/06 13:36:57;;;;;;;3.95;1.20;;;;;;;;;;4929952;29;20071;-79
2023/05/06 13:39:24;;;;;;;1.25;1.25;;;;;;;;;;4927984;29;20043;-77
2023/05/06 13:41:50;;;;;;;1.30;1.10;;;;;;;;;;4930548;29;20031;-78
2023/05/06 13:44:16;;;;;;;2.55;1.17;;;;;;;;;;4930070;29;20436;-78
2023/05/06 13:46:42;;;;;;;3.92;1.52;;;;;;;;;;4929752;29;20035;-75
2023/05/06 13:49:08;;;;;;;2.90;1.45;;;;;;;;;;4929571;29;20024;-75
2023/05/06 13:51:34;;;;;;;1.48;1.13;;;;;;;;;;4929661;29;20043;-75
2023/05/06 13:54:01;;;;;;;3.40;1.48;;;;;;;;;;4929006;29;20043;-78
2023/05/06 13:56:27;;;;;;;4.03;1.88;;;;;;;;;;4929876;29;20071;-75
2023/05/06 13:58:53;;;;;;;3.88;1.40;;;;;;;;;;4928165;29;20047;-78
2023/05/06 14:01:25;;;;;;;2.10;1.15;;;;;;;;;;4931809;29;20047;-77
2023/05/06 14:03:51;;;;;;;3.35;1.25;;;;;;;;;;4927736;29;20038;-76
2023/05/06 14:06:17;;;;;;;3.83;1.63;;;;;;;;;;4927535;29;20704;-75
2023/05/06 14:08:44;;;;;;;1.40;0.90;;;;;;;;;;4927362;29;20035;-76
2023/05/06 14:11:10;;;;;;;1.85;1.15;;;;;;;;;;4927708;29;20400;-76
2023/05/06 14:13:36;;;;;;;1.73;1.30;;;;;;;;;;4924111;29;20024;-77
2023/05/06 14:16:02;;;;;;;1.27;0.95;;;;;;;;;;4926172;29;20036;-77
2023/05/06 14:18:28;;;;;;;1.15;1.05;;;;;;;;;;4927219;29;20659;-76
2023/05/06 14:20:55;;;;;;;0.85;0.60;;;;;;;;;;4927507;29;20269;-77
2023/05/06 14:23:21;;;;;;;1.05;1.05;;;;;;;;;;4926715;29;20031;-77
2023/05/06 14:25:47;;;;;;;0.80;0.80;;;;;;;;;;4926008;29;20055;-77
2023/05/06 14:28:14;;;;;;;1.15;1.00;;;;;;;;;;4927603;29;20473;-77
2023/05/06 14:30:40;;;;;;;2.60;1.98;;;;;;;;;;4927251;29;20428;-77
2023/05/06 14:33:06;;;;;;;0.90;0.90;;;;;;;;;;4927489;29;20031;-81
2023/05/06 14:35:32;;;;;;;4.32;1.02;;;;;;;;;;4927609;29;20162;-77
2023/05/06 14:37:58;;;;;;;2.95;1.10;;;;;;;;;;4938625;29;20279;-76
2023/05/06 14:40:24;;;;;;;2.78;1.42;;;;;;;;;;4940423;29;20023;-76
2023/05/06 14:42:52;;;;;;;1.10;1.10;;;;;;;;;;4939606;29;20042;-75